sensor_id;sensor_type;location;lat;lon;timestamp;pressure;altitude;pressure_sealevel;temperature;humidity
56414;BME280;42318;48.452;19.526;2024-03-29T00:02:26;96948.97;;;21.15;57.63
56414;BME280;42318;48.452;19.526;2024-03-29T00:05:27;96939.50;;;21.12;57.81
56414;BME280;42318;48.452;19.526;2024-03-29T00:08:27;96962.00;;;21.18;57.65
56414;BME280;42318;48.452;19.526;2024-03-29T00:11:28;96965.81;;;21.17;57.51
56414;BME280;42318;48.452;19.526;2024-03-29T00:14:31;96987.63;;;21.17;57.79
56414;BME280;42318;48.452;19.526;2024-03-29T00:17:32;96951.69;;;21.15;57.47
56414;BME280;42318;48.452;19.526;2024-03-29T00:20:33;96932.34;;;21.16;57.55
56414;BME280;42318;48.452;19.526;2024-03-29T00:23:33;96958.56;;;21.12;57.83
56414;BME280;42318;48.452;19.526;2024-03-29T00:26:35;97018.69;;;21.16;57.33
56414;BME280;42318;48.452;19.526;2024-03-29T00:29:36;97046.31;;;21.09;57.47
56414;BME280;42318;48.452;19.526;2024-03-29T00:32:37;97065.50;;;21.18;57.54
56414;BME280;42318;48.452;19.526;2024-03-29T00:35:38;97076.19;;;21.14;57.76
56414;BME280;42318;48.452;19.526;2024-03-29T00:38:38;97094.13;;;21.15;57.33
56414;BME280;42318;48.452;19.526;2024-03-29T00:41:39;97096.88;;;21.15;57.59
56414;BME280;42318;48.452;19.526;2024-03-29T00:44:40;97118.13;;;21.13;57.61
56414;BME280;42318;48.452;19.526;2024-03-29T00:47:40;97136.09;;;21.14;57.67
56414;BME280;42318;48.452;19.526;2024-03-29T00:50:41;97143.16;;;21.15;57.59
56414;BME280;42318;48.452;19.526;2024-03-29T00:53:42;97172.31;;;21.15;57.63
56414;BME280;42318;48.452;19.526;2024-03-29T00:56:42;97211.63;;;21.09;57.39
56414;BME280;42318;48.452;19.526;2024-03-29T00:59:44;97226.28;;;21.13;57.37
56414;BME280;42318;48.452;19.526;2024-03-29T01:02:44;97212.06;;;21.16;57.49
56414;BME280;42318;48.452;19.526;2024-03-29T01:05:45;97223.56;;;21.13;57.90
56414;BME280;42318;48.452;19.526;2024-03-29T01:08:46;97227.91;;;21.14;57.40
56414;BME280;42318;48.452;19.526;2024-03-29T01:11:47;97214.06;;;21.10;57.62
56414;BME280;42318;48.452;19.526;2024-03-29T01:14:47;97236.88;;;21.14;57.79
56414;BME280;42318;48.452;19.526;2024-03-29T01:17:48;97241.59;;;21.09;57.56
56414;BME280;42318;48.452;19.526;2024-03-29T01:20:49;97265.22;;;21.13;57.92
56414;BME280;42318;48.452;19.526;2024-03-29T01:23:50;97261.53;;;21.04;57.50
56414;BME280;42318;48.452;19.526;2024-03-29T01:26:51;97290.25;;;21.15;57.60
56414;BME280;42318;48.452;19.526;2024-03-29T01:29:52;97285.69;;;21.11;57.42
56414;BME280;42318;48.452;19.526;2024-03-29T01:32:52;97290.25;;;21.15;57.34
56414;BME280;42318;48.452;19.526;2024-03-29T01:35:53;97294.06;;;21.14;57.64
56414;BME280;42318;48.452;19.526;2024-03-29T01:38:54;97295.47;;;21.12;57.74
56414;BME280;42318;48.452;19.526;2024-03-29T01:41:57;97302.25;;;21.14;57.92
56414;BME280;42318;48.452;19.526;2024-03-29T01:44:57;97315.06;;;21.14;57.84
56414;BME280;42318;48.452;19.526;2024-03-29T01:47:59;97322.41;;;21.13;57.71
56414;BME280;42318;48.452;19.526;2024-03-29T01:51:00;97306.50;;;21.01;57.92
56414;BME280;42318;48.452;19.526;2024-03-29T01:54:02;97330.88;;;21.12;57.73
56414;BME280;42318;48.452;19.526;2024-03-29T01:57:03;97334.94;;;21.14;57.64
56414;BME280;42318;48.452;19.526;2024-03-29T02:00:05;97338.22;;;21.11;57.87
56414;BME280;42318;48.452;19.526;2024-03-29T02:03:11;97346.94;;;21.13;57.41
56414;BME280;42318;48.452;19.526;2024-03-29T02:06:14;97353.19;;;21.14;57.36
56414;BME280;42318;48.452;19.526;2024-03-29T02:09:16;97354.28;;;21.13;57.41
56414;BME280;42318;48.452;19.526;2024-03-29T02:12:17;97345.59;;;21.11;57.86
56414;BME280;42318;48.452;19.526;2024-03-29T02:15:18;97353.75;;;21.11;57.82
56414;BME280;42318;48.452;19.526;2024-03-29T02:18:18;97342.88;;;21.11;57.66
56414;BME280;42318;48.452;19.526;2024-03-29T02:21:19;97340.66;;;21.13;57.50
56414;BME280;42318;48.452;19.526;2024-03-29T02:24:20;97357.81;;;21.13;57.80
56414;BME280;42318;48.452;19.526;2024-03-29T02:27:21;97367.09;;;21.12;57.70
56414;BME280;42318;48.452;19.526;2024-03-29T02:30:23;97378.28;;;21.11;57.75
56414;BME280;42318;48.452;19.526;2024-03-29T02:33:23;97383.44;;;21.12;57.81
56414;BME280;42318;48.452;19.526;2024-03-29T02:36:24;97379.09;;;21.11;57.36
56414;BME280;42318;48.452;19.526;2024-03-29T02:39:25;97390.50;;;21.13;57.41
56414;BME280;42318;48.452;19.526;2024-03-29T02:42:25;97405.22;;;21.12;57.62
56414;BME280;42318;48.452;19.526;2024-03-29T02:45:26;97416.13;;;21.12;57.33
56414;BME280;42318;48.452;19.526;2024-03-29T02:48:27;97431.66;;;21.12;57.76
56414;BME280;42318;48.452;19.526;2024-03-29T02:51:27;97445.28;;;21.12;57.38
56414;BME280;42318;48.452;19.526;2024-03-29T02:54:28;97454.25;;;21.12;57.75
56414;BME280;42318;48.452;19.526;2024-03-29T02:57:29;97443.69;;;21.06;57.32
56414;BME280;42318;48.452;19.526;2024-03-29T03:00:30;97451.34;;;21.04;57.79
56414;BME280;42318;48.452;19.526;2024-03-29T03:03:31;97483.97;;;21.09;57.77
56414;BME280;42318;48.452;19.526;2024-03-29T03:06:32;97484.50;;;21.11;57.70
56414;BME280;42318;48.452;19.526;2024-03-29T03:09:32;97494.91;;;21.04;57.95
56414;BME280;42318;48.452;19.526;2024-03-29T03:12:51;97515.00;;;21.13;57.84
56414;BME280;42318;48.452;19.526;2024-03-29T03:15:52;97521.53;;;21.12;57.93
56414;BME280;42318;48.452;19.526;2024-03-29T03:18:53;97521.25;;;21.13;57.82
56414;BME280;42318;48.452;19.526;2024-03-29T03:21:53;97520.44;;;21.13;57.83
56414;BME280;42318;48.452;19.526;2024-03-29T03:24:54;97520.44;;;21.13;57.77
56414;BME280;42318;48.452;19.526;2024-03-29T03:27:56;97527.78;;;21.12;57.98
56414;BME280;42318;48.452;19.526;2024-03-29T03:30:57;97533.53;;;21.11;58.11
56414;BME280;42318;48.452;19.526;2024-03-29T03:33:57;97538.16;;;21.10;58.09
56414;BME280;42318;48.452;19.526;2024-03-29T03:36:58;97537.13;;;21.06;57.83
56414;BME280;42318;48.452;19.526;2024-03-29T03:39:59;97556.94;;;21.12;57.67
56414;BME280;42318;48.452;19.526;2024-03-29T03:43:00;97573.28;;;21.12;57.98
56414;BME280;42318;48.452;19.526;2024-03-29T03:46:01;97569.75;;;21.11;57.87
56414;BME280;42318;48.452;19.526;2024-03-29T03:49:02;97567.84;;;21.12;57.93
56414;BME280;42318;48.452;19.526;2024-03-29T03:52:03;97565.41;;;21.10;57.59
56414;BME280;42318;48.452;19.526;2024-03-29T03:55:04;97567.03;;;21.11;57.79
56414;BME280;42318;48.452;19.526;2024-03-29T03:58:05;97571.66;;;21.11;57.60
56414;BME280;42318;48.452;19.526;2024-03-29T04:01:06;97583.66;;;21.10;58.00
56414;BME280;42318;48.452;19.526;2024-03-29T04:04:07;97595.91;;;21.12;58.02
56414;BME280;42318;48.452;19.526;2024-03-29T04:07:08;97608.16;;;21.10;57.93
56414;BME280;42318;48.452;19.526;2024-03-29T04:10:08;97601.09;;;21.09;57.83
56414;BME280;42318;48.452;19.526;2024-03-29T04:13:09;97619.06;;;21.10;57.51
56414;BME280;42318;48.452;19.526;2024-03-29T04:16:10;97607.19;;;20.95;57.35
56414;BME280;42318;48.452;19.526;2024-03-29T04:19:10;97611.22;;;21.03;57.40
56414;BME280;42318;48.452;19.526;2024-03-29T04:22:11;97621.78;;;21.10;57.57
56414;BME280;42318;48.452;19.526;2024-03-29T04:25:12;97622.88;;;21.09;57.50
56414;BME280;42318;48.452;19.526;2024-03-29T04:28:12;97623.69;;;21.09;57.59
56414;BME280;42318;48.452;19.526;2024-03-29T04:31:13;97627.53;;;21.08;57.56
56414;BME280;42318;48.452;19.526;2024-03-29T04:34:14;97622.88;;;21.09;57.52
56414;BME280;42318;48.452;19.526;2024-03-29T04:37:15;97633.78;;;21.09;57.32
56414;BME280;42318;48.452;19.526;2024-03-29T04:40:15;97659.38;;;21.08;57.47
56414;BME280;42318;48.452;19.526;2024-03-29T04:43:16;97675.44;;;21.09;57.59
56414;BME280;42318;48.452;19.526;2024-03-29T04:46:17;97671.91;;;21.09;57.61
56414;BME280;42318;48.452;19.526;2024-03-29T04:49:19;97683.63;;;21.09;57.57
56414;BME280;42318;48.452;19.526;2024-03-29T04:52:29;97684.72;;;21.08;57.37
56414;BME280;42318;48.452;19.526;2024-03-29T04:55:30;97695.63;;;21.08;57.50
56414;BME280;42318;48.452;19.526;2024-03-29T04:58:31;97708.41;;;21.08;57.38
56414;BME280;42318;48.452;19.526;2024-03-29T05:01:32;97711.66;;;21.10;57.30
56414;BME280;42318;48.452;19.526;2024-03-29T05:04:35;97722.56;;;21.10;57.45
56414;BME280;42318;48.452;19.526;2024-03-29T05:07:36;97739.72;;;21.10;57.45
56414;BME280;42318;48.452;19.526;2024-03-29T05:10:36;97726.16;;;21.00;57.50
56414;BME280;42318;48.452;19.526;2024-03-29T05:13:38;97754.44;;;21.09;57.69
56414;BME280;42318;48.452;19.526;2024-03-29T05:16:39;97759.06;;;21.09;57.62
56414;BME280;42318;48.452;19.526;2024-03-29T05:19:40;97762.09;;;21.07;57.21
56414;BME280;42318;48.452;19.526;2024-03-29T05:22:41;97745.22;;;21.00;57.60
56414;BME280;42318;48.452;19.526;2024-03-29T05:25:41;97752.53;;;21.10;57.66
56414;BME280;42318;48.452;19.526;2024-03-29T05:28:42;97741.91;;;21.08;57.20
56414;BME280;42318;48.452;19.526;2024-03-29T05:31:43;97750.91;;;21.09;57.62
56414;BME280;42318;48.452;19.526;2024-03-29T05:34:43;97752.53;;;21.10;57.43
56414;BME280;42318;48.452;19.526;2024-03-29T05:37:44;97746.84;;;21.06;57.28
56414;BME280;42318;48.452;19.526;2024-03-29T05:40:49;97754.44;;;21.09;57.03
56414;BME280;42318;48.452;19.526;2024-03-29T05:43:50;97752.81;;;21.08;57.39
56414;BME280;42318;48.452;19.526;2024-03-29T05:46:50;97752.59;;;20.99;57.54
56414;BME280;42318;48.452;19.526;2024-03-29T05:49:51;97783.06;;;21.07;57.28
56414;BME280;42318;48.452;19.526;2024-03-29T05:52:52;97798.31;;;21.08;57.41
56414;BME280;42318;48.452;19.526;2024-03-29T05:55:53;97798.84;;;21.10;57.37
56414;BME280;42318;48.452;19.526;2024-03-29T05:58:53;97801.03;;;21.08;57.45
56414;BME280;42318;48.452;19.526;2024-03-29T06:01:54;97806.47;;;21.08;57.34
56414;BME280;42318;48.452;19.526;2024-03-29T06:04:55;97812.75;;;21.08;57.18
56414;BME280;42318;48.452;19.526;2024-03-29T06:07:56;97822.25;;;21.11;57.53
56414;BME280;42318;48.452;19.526;2024-03-29T06:10:56;97819.00;;;21.09;57.36
56414;BME280;42318;48.452;19.526;2024-03-29T06:14:01;97815.19;;;21.10;57.49
56414;BME280;42318;48.452;19.526;2024-03-29T06:17:04;97817.91;;;21.10;57.35
56414;BME280;42318;48.452;19.526;2024-03-29T06:20:24;97810.31;;;21.01;57.20
56414;BME280;42318;48.452;19.526;2024-03-29T06:23:24;97824.44;;;21.09;57.60
56414;BME280;42318;48.452;19.526;2024-03-29T06:26:26;97824.44;;;21.09;57.15
56414;BME280;42318;48.452;19.526;2024-03-29T06:29:26;97835.88;;;21.11;57.38
56414;BME280;42318;48.452;19.526;2024-03-29T06:32:27;97834.53;;;21.08;57.39
56414;BME280;42318;48.452;19.526;2024-03-29T06:35:28;97830.72;;;21.09;57.24
56414;BME280;42318;48.452;19.526;2024-03-29T06:38:29;97839.69;;;21.10;57.07
56414;BME280;42318;48.452;19.526;2024-03-29T06:41:29;97824.75;;;21.02;57.15
56414;BME280;42318;48.452;19.526;2024-03-29T06:44:30;97847.63;;;21.06;57.18
56414;BME280;42318;48.452;19.526;2024-03-29T06:47:31;97859.84;;;21.09;57.32
56414;BME280;42318;48.452;19.526;2024-03-29T06:50:32;97868.03;;;21.09;57.15
56414;BME280;42318;48.452;19.526;2024-03-29T06:53:32;97880.03;;;21.08;57.43
56414;BME280;42318;48.452;19.526;2024-03-29T06:56:33;97873.19;;;21.10;57.18
56414;BME280;42318;48.452;19.526;2024-03-29T06:59:34;97860.41;;;21.11;57.25
56414;BME280;42318;48.452;19.526;2024-03-29T07:02:35;97860.44;;;21.00;57.17
56414;BME280;42318;48.452;19.526;2024-03-29T07:05:35;97858.00;;;20.99;57.10
56414;BME280;42318;48.452;19.526;2024-03-29T07:08:36;97887.91;;;21.09;56.90
56414;BME280;42318;48.452;19.526;2024-03-29T07:11:37;97903.16;;;21.10;57.06
56414;BME280;42318;48.452;19.526;2024-03-29T07:14:38;97905.63;;;21.07;57.28
56414;BME280;42318;48.452;19.526;2024-03-29T07:17:38;97907.00;;;21.04;57.19
56414;BME280;42318;48.452;19.526;2024-03-29T07:20:40;97915.97;;;21.05;56.89
56414;BME280;42318;48.452;19.526;2024-03-29T07:23:41;97918.69;;;21.10;56.59
56414;BME280;42318;48.452;19.526;2024-03-29T07:26:42;97931.50;;;21.09;56.69
56414;BME280;42318;48.452;19.526;2024-03-29T07:29:42;97933.41;;;21.09;56.66
56414;BME280;42318;48.452;19.526;2024-03-29T07:32:44;97926.03;;;21.09;56.52
56414;BME280;42318;48.452;19.526;2024-03-29T07:35:47;97932.59;;;21.08;56.18
56414;BME280;42318;48.452;19.526;2024-03-29T07:38:48;97927.97;;;21.09;56.18
56414;BME280;42318;48.452;19.526;2024-03-29T07:41:49;97934.22;;;21.09;56.31
56414;BME280;42318;48.452;19.526;2024-03-29T07:44:49;97941.03;;;21.12;56.06
56414;BME280;42318;48.452;19.526;2024-03-29T07:47:50;97938.31;;;21.01;56.41
56414;BME280;42318;48.452;19.526;2024-03-29T07:50:53;97953.56;;;21.13;56.06
56414;BME280;42318;48.452;19.526;2024-03-29T07:53:53;97954.66;;;21.07;56.23
56414;BME280;42318;48.452;19.526;2024-03-29T07:56:54;97972.63;;;21.13;55.88
56414;BME280;42318;48.452;19.526;2024-03-29T07:59:55;97988.69;;;21.14;55.90
56414;BME280;42318;48.452;19.526;2024-03-29T08:02:56;97988.97;;;21.13;56.31
56414;BME280;42318;48.452;19.526;2024-03-29T08:05:58;97991.13;;;21.16;56.02
56414;BME280;42318;48.452;19.526;2024-03-29T08:08:59;97979.16;;;21.07;55.97
56414;BME280;42318;48.452;19.526;2024-03-29T08:12:00;97992.22;;;21.15;56.11
56414;BME280;42318;48.452;19.526;2024-03-29T08:15:00;97993.34;;;21.09;56.09
56414;BME280;42318;48.452;19.526;2024-03-29T08:18:01;98002.84;;;21.16;56.05
56414;BME280;42318;48.452;19.526;2024-03-29T08:21:02;97992.78;;;21.07;55.99
56414;BME280;42318;48.452;19.526;2024-03-29T08:24:03;98002.84;;;21.11;56.57
56414;BME280;42318;48.452;19.526;2024-03-29T08:27:05;98016.75;;;21.15;56.28
56414;BME280;42318;48.452;19.526;2024-03-29T08:30:06;98011.84;;;21.12;56.74
56414;BME280;42318;48.452;19.526;2024-03-29T08:33:07;98017.84;;;21.14;56.53
56414;BME280;42318;48.452;19.526;2024-03-29T08:36:07;98023.28;;;21.14;56.32
56414;BME280;42318;48.452;19.526;2024-03-29T08:39:09;98022.75;;;21.17;56.77
56414;BME280;42318;48.452;19.526;2024-03-29T08:42:11;98017.28;;;21.17;56.74
56414;BME280;42318;48.452;19.526;2024-03-29T08:45:12;98010.75;;;21.08;56.61
56414;BME280;42318;48.452;19.526;2024-03-29T08:48:13;98021.66;;;21.18;56.36
56414;BME280;42318;48.452;19.526;2024-03-29T08:51:14;98031.44;;;21.19;56.95
56414;BME280;42318;48.452;19.526;2024-03-29T08:57:35;98029.31;;;21.26;56.32
56414;BME280;42318;48.452;19.526;2024-03-29T09:00:36;98034.78;;;21.26;56.13
56414;BME280;42318;48.452;19.526;2024-03-29T09:03:36;98023.06;;;21.25;56.46
56414;BME280;42318;48.452;19.526;2024-03-29T09:06:38;98029.31;;;21.31;56.89
56414;BME280;42318;48.452;19.526;2024-03-29T09:09:38;98028.22;;;21.37;56.72
56414;BME280;42318;48.452;19.526;2024-03-29T09:12:42;98019.50;;;21.35;57.17
56414;BME280;42318;48.452;19.526;2024-03-29T09:15:42;97993.63;;;21.33;57.24
56414;BME280;42318;48.452;19.526;2024-03-29T09:18:43;97999.03;;;21.38;57.37
56414;BME280;42318;48.452;19.526;2024-03-29T09:21:43;97997.41;;;21.37;57.25
56414;BME280;42318;48.452;19.526;2024-03-29T09:24:45;97991.16;;;21.31;56.90
56414;BME280;42318;48.452;19.526;2024-03-29T09:27:46;97985.69;;;21.41;58.29
56414;BME280;42318;48.452;19.526;2024-03-29T09:30:49;97984.59;;;21.37;57.33
56414;BME280;42318;48.452;19.526;2024-03-29T09:33:49;97972.88;;;21.37;57.44
56414;BME280;42318;48.452;19.526;2024-03-29T09:36:53;97982.16;;;21.36;57.57
56414;BME280;42318;48.452;19.526;2024-03-29T09:39:54;97970.72;;;21.28;58.08
56414;BME280;42318;48.452;19.526;2024-03-29T09:42:56;97974.25;;;21.34;58.27
56414;BME280;42318;48.452;19.526;2024-03-29T09:46:03;97975.88;;;21.35;57.96
56414;BME280;42318;48.452;19.526;2024-03-29T09:49:04;97985.97;;;21.35;57.36
56414;BME280;42318;48.452;19.526;2024-03-29T09:52:07;97990.88;;;21.33;57.58
56414;BME280;42318;48.452;19.526;2024-03-29T09:55:09;97993.59;;;21.38;57.44
56414;BME280;42318;48.452;19.526;2024-03-29T09:58:10;97985.97;;;21.40;56.72
56414;BME280;42318;48.452;19.526;2024-03-29T10:01:11;97994.41;;;21.43;56.92
56414;BME280;42318;48.452;19.526;2024-03-29T10:04:12;97984.06;;;21.40;56.90
56414;BME280;42318;48.452;19.526;2024-03-29T10:07:14;97987.31;;;21.42;56.86
56414;BME280;42318;48.452;19.526;2024-03-29T10:10:15;97984.31;;;21.44;56.83
56414;BME280;42318;48.452;19.526;2024-03-29T10:13:16;97957.91;;;21.34;56.45
56414;BME280;42318;48.452;19.526;2024-03-29T10:16:20;97961.41;;;21.45;56.30
56414;BME280;42318;48.452;19.526;2024-03-29T10:19:25;97962.50;;;21.44;56.26
56414;BME280;42318;48.452;19.526;2024-03-29T10:22:25;97971.22;;;21.46;56.17
56414;BME280;42318;48.452;19.526;2024-03-29T10:25:26;97976.66;;;21.46;55.40
56414;BME280;42318;48.452;19.526;2024-03-29T10:28:31;97970.66;;;21.49;55.53
56414;BME280;42318;48.452;19.526;2024-03-29T10:31:36;97976.41;;;21.47;55.16
56414;BME280;42318;48.452;19.526;2024-03-29T10:34:37;97972.03;;;21.46;54.57
56414;BME280;42318;48.452;19.526;2024-03-29T10:37:38;97952.69;;;21.43;54.82
56414;BME280;42318;48.452;19.526;2024-03-29T10:40:40;97942.59;;;21.48;53.97
56414;BME280;42318;48.452;19.526;2024-03-29T10:43:46;97945.59;;;21.47;54.05
56414;BME280;42318;48.452;19.526;2024-03-29T10:46:50;97953.78;;;21.47;54.18
56414;BME280;42318;48.452;19.526;2024-03-29T10:49:51;97939.63;;;21.40;54.16
56414;BME280;42318;48.452;19.526;2024-03-29T10:52:52;97951.31;;;21.45;54.11
56414;BME280;42318;48.452;19.526;2024-03-29T10:55:56;97942.63;;;21.38;53.89
56414;BME280;42318;48.452;19.526;2024-03-29T11:05:50;97948.84;;;21.49;53.37
56414;BME280;42318;48.452;19.526;2024-03-29T11:08:56;97939.06;;;21.48;52.63
56414;BME280;42318;48.452;19.526;2024-03-29T11:12:01;97928.69;;;21.50;52.88
56414;BME280;42318;48.452;19.526;2024-03-29T11:15:03;97941.75;;;21.53;52.87
56414;BME280;42318;48.452;19.526;2024-03-29T11:18:05;97923.50;;;21.53;51.76
56414;BME280;42318;48.452;19.526;2024-03-29T11:21:08;97920.19;;;21.56;51.37
56414;BME280;42318;48.452;19.526;2024-03-29T11:24:10;97908.19;;;21.57;51.03
56414;BME280;42318;48.452;19.526;2024-03-29T11:27:11;97913.13;;;21.55;51.59
56414;BME280;42318;48.452;19.526;2024-03-29T11:30:12;97920.47;;;21.55;51.63
56414;BME280;42318;48.452;19.526;2024-03-29T11:33:44;97904.94;;;21.55;51.25
56414;BME280;42318;48.452;19.526;2024-03-29T11:36:46;97899.53;;;21.50;51.05
56414;BME280;42318;48.452;19.526;2024-03-29T11:39:47;97887.53;;;21.46;50.96
56414;BME280;42318;48.452;19.526;2024-03-29T11:42:48;97903.88;;;21.51;51.11
56414;BME280;42318;48.452;19.526;2024-03-29T11:45:49;97912.88;;;21.47;50.80
56414;BME280;42318;48.452;19.526;2024-03-29T11:48:52;97922.94;;;21.51;50.42
56414;BME280;42318;48.452;19.526;2024-03-29T11:52:04;97927.84;;;21.54;49.43
56414;BME280;42318;48.452;19.526;2024-03-29T11:55:05;97917.75;;;21.55;49.44
56414;BME280;42318;48.452;19.526;2024-03-29T11:58:08;97911.25;;;21.46;48.89
56414;BME280;42318;48.452;19.526;2024-03-29T12:01:08;97912.59;;;21.48;48.72
56414;BME280;42318;48.452;19.526;2024-03-29T12:04:21;97913.72;;;21.42;46.62
56414;BME280;42318;48.452;19.526;2024-03-29T12:07:23;97911.56;;;21.39;46.64
56414;BME280;42318;48.452;19.526;2024-03-29T12:10:27;97924.34;;;21.44;47.88
56414;BME280;42318;48.452;19.526;2024-03-29T12:13:29;97909.38;;;21.41;48.04
56414;BME280;42318;48.452;19.526;2024-03-29T12:16:30;97909.66;;;21.40;47.74
56414;BME280;42318;48.452;19.526;2024-03-29T12:19:30;97909.38;;;21.41;48.15
56414;BME280;42318;48.452;19.526;2024-03-29T12:22:33;97905.03;;;21.40;47.83
56414;BME280;42318;48.452;19.526;2024-03-29T12:25:35;97903.66;;;21.38;48.50
56414;BME280;42318;48.452;19.526;2024-03-29T12:28:37;97902.84;;;21.37;48.58
56414;BME280;42318;48.452;19.526;2024-03-29T12:31:38;97893.84;;;21.37;48.02
56414;BME280;42318;48.452;19.526;2024-03-29T12:34:39;97898.22;;;21.38;48.80
56414;BME280;42318;48.452;19.526;2024-03-29T12:37:50;97905.84;;;21.36;49.04
56414;BME280;42318;48.452;19.526;2024-03-29T12:40:52;97900.69;;;21.34;48.58
56414;BME280;42318;48.452;19.526;2024-03-29T12:43:53;97896.06;;;21.29;47.59
56414;BME280;42318;48.452;19.526;2024-03-29T12:46:54;97894.97;;;21.30;48.63
56414;BME280;42318;48.452;19.526;2024-03-29T12:49:54;97896.06;;;21.29;49.27
56414;BME280;42318;48.452;19.526;2024-03-29T12:52:58;97900.44;;;21.30;49.17
56414;BME280;42318;48.452;19.526;2024-03-29T12:55:58;97895.53;;;21.27;49.30
56414;BME280;42318;48.452;19.526;2024-03-29T12:59:00;97896.34;;;21.28;48.33
56414;BME280;42318;48.452;19.526;2024-03-29T13:02:00;97893.06;;;21.31;48.52
56414;BME280;42318;48.452;19.526;2024-03-29T13:05:05;97893.88;;;21.31;49.22
56414;BME280;42318;48.452;19.526;2024-03-29T13:08:12;97889.81;;;21.29;50.04
56414;BME280;42318;48.452;19.526;2024-03-29T13:11:15;97889.28;;;21.27;50.57
56414;BME280;42318;48.452;19.526;2024-03-29T13:14:16;97898.25;;;21.27;51.28
56414;BME280;42318;48.452;19.526;2024-03-29T13:17:17;97890.34;;;21.31;51.96
56414;BME280;42318;48.452;19.526;2024-03-29T13:20:18;97889.00;;;21.28;52.18
56414;BME280;42318;48.452;19.526;2024-03-29T13:23:19;97883.78;;;21.32;52.20
56414;BME280;42318;48.452;19.526;2024-03-29T13:26:19;97893.31;;;21.35;52.52
56414;BME280;42318;48.452;19.526;2024-03-29T13:29:21;97883.78;;;21.37;52.55
56414;BME280;42318;48.452;19.526;2024-03-29T13:32:21;97874.78;;;21.37;52.81
56414;BME280;42318;48.452;19.526;2024-03-29T13:35:22;97883.78;;;21.37;53.11
56414;BME280;42318;48.452;19.526;2024-03-29T13:38:23;97888.13;;;21.38;53.38
56414;BME280;42318;48.452;19.526;2024-03-29T13:41:27;97875.88;;;21.36;53.84
56414;BME280;42318;48.452;19.526;2024-03-29T13:44:27;97875.06;;;21.35;53.92
56414;BME280;42318;48.452;19.526;2024-03-29T13:47:28;97871.50;;;21.40;54.08
56414;BME280;42318;48.452;19.526;2024-03-29T13:50:28;97879.69;;;21.40;54.18
56414;BME280;42318;48.452;19.526;2024-03-29T13:53:29;97865.50;;;21.38;54.60
56414;BME280;42318;48.452;19.526;2024-03-29T13:56:35;97867.69;;;21.36;54.68
56414;BME280;42318;48.452;19.526;2024-03-29T13:59:36;97857.09;;;21.34;54.68
56414;BME280;42318;48.452;19.526;2024-03-29T14:02:37;97857.94;;;21.29;54.38
56414;BME280;42318;48.452;19.526;2024-03-29T14:05:38;97847.03;;;21.24;54.63
56414;BME280;42318;48.452;19.526;2024-03-29T14:08:39;97842.09;;;21.31;55.40
56414;BME280;42318;48.452;19.526;2024-03-29T14:11:39;97847.22;;;21.43;55.67
56414;BME280;42318;48.452;19.526;2024-03-29T14:14:40;97854.28;;;21.49;55.94
56414;BME280;42318;48.452;19.526;2024-03-29T14:17:44;97843.91;;;21.51;56.56
56414;BME280;42318;48.452;19.526;2024-03-29T14:20:44;97843.88;;;21.56;56.36
56414;BME280;42318;48.452;19.526;2024-03-29T14:23:45;97837.88;;;21.54;56.17
56414;BME280;42318;48.452;19.526;2024-03-29T14:26:46;97844.69;;;21.57;56.55
56414;BME280;42318;48.452;19.526;2024-03-29T14:29:47;97840.88;;;21.58;56.13
56414;BME280;42318;48.452;19.526;2024-03-29T14:32:47;97841.72;;;21.53;56.11
56414;BME280;42318;48.452;19.526;2024-03-29T14:35:48;97840.09;;;21.52;56.75
56414;BME280;42318;48.452;19.526;2024-03-29T14:38:50;97838.16;;;21.53;57.46
56414;BME280;42318;48.452;19.526;2024-03-29T14:41:51;97825.34;;;21.53;58.04
56414;BME280;42318;48.452;19.526;2024-03-29T14:44:51;97827.00;;;21.54;58.78
56414;BME280;42318;48.452;19.526;2024-03-29T14:47:52;97813.97;;;21.46;59.17
56414;BME280;42318;48.452;19.526;2024-03-29T14:50:53;97826.44;;;21.57;59.42
56414;BME280;42318;48.452;19.526;2024-03-29T14:53:56;97816.09;;;21.54;59.36
56414;BME280;42318;48.452;19.526;2024-03-29T14:56:57;97813.34;;;21.54;59.32
56414;BME280;42318;48.452;19.526;2024-03-29T14:59:58;97818.81;;;21.54;59.10
56414;BME280;42318;48.452;19.526;2024-03-29T15:02:58;97819.38;;;21.51;58.73
56414;BME280;42318;48.452;19.526;2024-03-29T15:05:59;97817.75;;;21.50;58.22
56414;BME280;42318;48.452;19.526;2024-03-29T15:09:00;97797.84;;;21.50;58.22
56414;BME280;42318;48.452;19.526;2024-03-29T15:12:01;97819.41;;;21.46;58.14
56414;BME280;42318;48.452;19.526;2024-03-29T15:15:05;97820.50;;;21.45;58.07
56414;BME280;42318;48.452;19.526;2024-03-29T15:18:06;97815.06;;;21.45;57.47
56414;BME280;42318;48.452;19.526;2024-03-29T15:21:06;97821.03;;;21.47;58.13
56414;BME280;42318;48.452;19.526;2024-03-29T15:24:09;97809.06;;;21.43;58.09
56414;BME280;42318;48.452;19.526;2024-03-29T15:27:10;97819.72;;;21.40;57.54
56414;BME280;42318;48.452;19.526;2024-03-29T15:30:27;97817.53;;;21.42;57.50
56414;BME280;42318;48.452;19.526;2024-03-29T15:33:28;97814.00;;;21.41;57.74
56414;BME280;42318;48.452;19.526;2024-03-29T15:36:29;97806.63;;;21.42;57.97
56414;BME280;42318;48.452;19.526;2024-03-29T15:39:29;97794.91;;;21.41;57.56
56414;BME280;42318;48.452;19.526;2024-03-29T15:42:30;97788.94;;;21.39;57.65
56414;BME280;42318;48.452;19.526;2024-03-29T15:45:32;97778.03;;;21.39;57.38
56414;BME280;42318;48.452;19.526;2024-03-29T15:48:33;97781.03;;;21.38;57.44
56414;BME280;42318;48.452;19.526;2024-03-29T15:51:33;97790.56;;;21.40;57.87
56414;BME280;42318;48.452;19.526;2024-03-29T15:54:34;97793.28;;;21.40;57.41
56414;BME280;42318;48.452;19.526;2024-03-29T15:57:35;97768.81;;;21.30;57.64
56414;BME280;42318;48.452;19.526;2024-03-29T16:00:36;97766.91;;;21.30;57.35